createdAt,value
2019-02-27T00:00:29.377Z,62.10
2019-02-27T00:02:01.665Z,62.20
2019-02-27T00:03:33.895Z,62.20
2019-02-27T00:05:08.356Z,62.00
2019-02-27T00:06:40.292Z,62.10
2019-02-27T00:08:12.516Z,62.90
2019-02-27T00:09:44.764Z,61.90
2019-02-27T00:11:17.028Z,61.70
2019-02-27T00:12:51.779Z,62.00
2019-02-27T00:14:23.454Z,62.10
2019-02-27T00:15:55.718Z,61.80
2019-02-27T00:17:27.837Z,61.60
2019-02-27T00:18:59.971Z,61.80
2019-02-27T00:20:32.223Z,61.70
2019-02-27T00:22:04.978Z,61.90
2019-02-27T00:23:37.202Z,62.10
2019-02-27T00:25:09.336Z,61.90
2019-02-27T00:26:42.482Z,62.00
2019-02-27T00:28:15.425Z,62.10
2019-02-27T00:29:47.703Z,62.10
2019-02-27T00:31:19.953Z,62.30
2019-02-27T00:32:52.228Z,62.20
2019-02-27T00:34:24.547Z,62.60
2019-02-27T00:35:56.770Z,62.60
2019-02-27T00:37:29.079Z,63.50
2019-02-27T00:39:01.190Z,63.00
2019-02-27T00:40:38.534Z,62.70
2019-02-27T00:42:07.665Z,62.70
2019-02-27T00:43:40.024Z,62.80
2019-02-27T00:45:12.207Z,62.80
2019-02-27T00:46:46.456Z,62.80
2019-02-27T00:48:18.345Z,62.80
2019-02-27T00:49:50.652Z,62.90
2019-02-27T00:51:22.928Z,63.70
2019-02-27T00:52:55.194Z,63.20
2019-02-27T00:54:29.037Z,63.20
2019-02-27T00:56:01.483Z,63.40
2019-02-27T00:57:33.754Z,63.60
2019-02-27T00:59:05.879Z,63.80
2019-02-27T01:00:39.369Z,64.00
2019-02-27T01:02:12.290Z,64.00
2019-02-27T01:03:44.565Z,63.90
2019-02-27T01:05:16.876Z,64.20
2019-02-27T01:06:49.149Z,64.20
2019-02-27T01:08:21.352Z,64.30
2019-02-27T01:09:53.564Z,64.00
2019-02-27T01:11:25.841Z,64.70
2019-02-27T01:12:58.692Z,63.90
2019-02-27T01:14:31.144Z,64.10
2019-02-27T01:16:03.316Z,63.90
2019-02-27T01:17:35.604Z,63.90
2019-02-27T01:19:07.919Z,64.40
2019-02-27T01:20:40.176Z,64.70
2019-02-27T01:22:12.445Z,64.60
2019-02-27T01:23:44.825Z,64.70
2019-02-27T01:25:17.051Z,65.00
2019-02-27T01:26:49.324Z,65.00
2019-02-27T01:28:21.623Z,65.10
2019-02-27T01:29:53.882Z,65.30
2019-02-27T01:31:26.063Z,64.40
2019-02-27T01:32:58.207Z,64.60
2019-02-27T01:34:30.469Z,64.70
2019-02-27T01:36:02.550Z,64.40
2019-02-27T01:37:34.792Z,64.80
2019-02-27T01:39:09.048Z,64.80
2019-02-27T01:40:40.983Z,64.40
2019-02-27T01:42:13.269Z,64.80
2019-02-27T01:43:45.395Z,64.60
2019-02-27T01:45:20.814Z,65.00
2019-02-27T01:46:51.847Z,64.70
2019-02-27T01:48:24.149Z,65.00
2019-02-27T01:49:56.444Z,65.20
2019-02-27T01:51:28.925Z,64.80
2019-02-27T01:53:01.330Z,64.70
2019-02-27T01:54:33.560Z,64.90
2019-02-27T01:56:05.736Z,65.00
2019-02-27T01:57:38.012Z,65.10
2019-02-27T01:59:10.264Z,65.00
2019-02-27T02:00:42.514Z,65.00
2019-02-27T02:02:14.795Z,64.80
2019-02-27T02:03:48.053Z,64.80
2019-02-27T02:05:20.514Z,64.90
2019-02-27T02:06:52.795Z,65.10
2019-02-27T02:08:25.097Z,65.00
2019-02-27T02:09:57.335Z,65.50
2019-02-27T02:11:29.639Z,64.60
2019-02-27T02:13:20.433Z,64.80
2019-02-27T02:15:48.483Z,65.30
2019-02-27T02:17:52.828Z,65.40
2019-02-27T02:20:16.057Z,65.60
2019-02-27T02:22:31.309Z,65.90
2019-02-27T02:24:51.919Z,65.30
2019-02-27T02:27:00.600Z,66.20
2019-02-27T02:29:30.078Z,65.20
2019-02-27T02:31:51.538Z,64.80
2019-02-27T02:33:55.573Z,63.90
2019-02-27T02:36:01.960Z,64.40
2019-02-27T02:38:03.207Z,64.60
2019-02-27T02:40:16.081Z,64.90
2019-02-27T02:42:27.251Z,65.30
2019-02-27T02:44:12.273Z,65.20
2019-02-27T02:45:53.449Z,65.80
2019-02-27T02:48:04.902Z,65.60
2019-02-27T02:50:20.738Z,66.20
2019-02-27T02:52:40.793Z,65.70
2019-02-27T02:54:39.533Z,66.00
2019-02-27T02:56:31.177Z,65.90
2019-02-27T02:58:17.447Z,67.30
2019-02-27T03:00:13.850Z,65.50
2019-02-27T03:01:53.244Z,65.70
2019-02-27T03:03:51.810Z,66.00
2019-02-27T03:06:09.801Z,66.00
2019-02-27T03:08:24.045Z,65.90
2019-02-27T03:10:27.502Z,66.20
2019-02-27T03:12:33.912Z,66.20
2019-02-27T03:14:43.786Z,66.00
2019-02-27T03:16:27.046Z,65.90
2019-02-27T03:19:11.942Z,65.60
2019-02-27T03:21:06.530Z,65.40
2019-02-27T03:22:55.941Z,65.40
2019-02-27T03:25:05.586Z,65.60
2019-02-27T03:27:29.640Z,66.00
2019-02-27T03:29:30.363Z,66.10
2019-02-27T03:31:37.082Z,66.20
2019-02-27T03:33:47.155Z,66.30
2019-02-27T03:36:13.501Z,66.30
2019-02-27T03:38:08.019Z,66.50
2019-02-27T03:40:23.999Z,66.50
2019-02-27T03:42:30.862Z,66.70
2019-02-27T03:44:32.729Z,66.90
2019-02-27T03:46:43.903Z,67.30
2019-02-27T03:48:31.630Z,66.90
2019-02-27T03:50:37.456Z,67.00
2019-02-27T03:53:00.433Z,66.60
2019-02-27T03:55:13.083Z,66.80
2019-02-27T03:57:03.567Z,66.90
2019-02-27T03:58:52.059Z,66.90
2019-02-27T04:00:45.814Z,67.40
2019-02-27T04:03:04.588Z,67.40
2019-02-27T04:05:09.282Z,68.30
2019-02-27T04:06:57.750Z,67.80
2019-02-27T04:08:54.792Z,68.20
2019-02-27T04:10:30.811Z,68.10
2019-02-27T04:12:01.266Z,67.90
2019-02-27T04:13:33.538Z,68.10
2019-02-27T04:15:06.091Z,67.40
2019-02-27T04:16:38.303Z,67.70
2019-02-27T04:18:09.582Z,67.70
2019-02-27T04:19:41.888Z,67.90
2019-02-27T04:21:14.545Z,68.00
2019-02-27T04:22:46.851Z,68.90
2019-02-27T04:24:22.383Z,67.90
2019-02-27T04:25:53.228Z,68.00
2019-02-27T04:27:25.369Z,68.00
2019-02-27T04:28:57.603Z,67.60
2019-02-27T04:30:29.921Z,67.80
2019-02-27T04:32:02.045Z,67.60
2019-02-27T04:33:34.422Z,67.70
2019-02-27T04:35:06.925Z,67.50
2019-02-27T04:36:39.206Z,67.50
2019-02-27T04:38:11.491Z,67.00
2019-02-27T04:39:43.661Z,66.70
2019-02-27T04:41:17.969Z,67.00
2019-02-27T04:42:49.897Z,66.80
2019-02-27T04:44:22.173Z,66.90
2019-02-27T04:45:54.448Z,66.90
2019-02-27T04:47:29.236Z,67.00
2019-02-27T04:49:03.896Z,67.40
2019-02-27T04:50:35.143Z,67.60
2019-02-27T04:52:07.224Z,67.70
2019-02-27T04:53:40.786Z,67.80
2019-02-27T04:55:15.638Z,67.60
2019-02-27T04:56:47.453Z,67.80
2019-02-27T04:58:19.750Z,68.30
2019-02-27T04:59:52.354Z,68.40
2019-02-27T05:01:25.113Z,68.40
2019-02-27T05:02:57.427Z,68.50
2019-02-27T05:04:34.882Z,68.50
2019-02-27T05:06:03.800Z,68.70
2019-02-27T05:07:35.923Z,68.10
2019-02-27T05:09:08.224Z,67.80
2019-02-27T05:10:40.741Z,68.60
2019-02-27T05:12:13.597Z,68.00
2019-02-27T05:13:45.910Z,67.60
2019-02-27T05:15:18.298Z,67.70
2019-02-27T05:16:50.600Z,67.60
2019-02-27T05:18:22.833Z,67.70
2019-02-27T05:19:55.144Z,67.00
2019-02-27T05:21:27.424Z,67.10
2019-02-27T05:23:00.408Z,67.30
2019-02-27T05:24:33.155Z,67.20
2019-02-27T05:26:05.387Z,67.00
2019-02-27T05:27:37.678Z,66.70
2019-02-27T05:29:09.967Z,66.70
2019-02-27T05:30:44.846Z,66.50
2019-02-27T05:32:18.152Z,66.50
2019-02-27T05:33:50.501Z,66.30
2019-02-27T05:35:24.249Z,66.40
2019-02-27T05:36:56.773Z,66.30
2019-02-27T05:38:29.058Z,66.70
2019-02-27T05:40:01.333Z,66.10
2019-02-27T05:41:33.770Z,66.00
2019-02-27T05:43:06.044Z,66.10
2019-02-27T05:44:38.205Z,65.60
2019-02-27T05:46:10.512Z,65.60
2019-02-27T05:47:45.822Z,66.30
2019-02-27T05:49:16.916Z,66.00
2019-02-27T05:50:49.053Z,66.50
2019-02-27T05:52:21.228Z,66.40
2019-02-27T05:53:53.444Z,66.80
2019-02-27T05:55:25.681Z,67.30
2019-02-27T05:56:57.786Z,67.50
2019-02-27T05:58:29.961Z,68.80
2019-02-27T06:00:03.380Z,68.00
2019-02-27T06:01:37.820Z,68.80
2019-02-27T06:03:09.934Z,68.90
2019-02-27T06:04:42.065Z,68.90
2019-02-27T06:06:14.357Z,68.80
2019-02-27T06:07:46.578Z,69.00
2019-02-27T06:09:18.831Z,68.80
2019-02-27T06:10:55.197Z,68.50
2019-02-27T06:12:24.984Z,67.60
2019-02-27T06:13:57.254Z,67.40
2019-02-27T06:15:29.518Z,67.50
2019-02-27T06:17:01.756Z,67.50
2019-02-27T06:18:33.985Z,67.50
2019-02-27T06:20:07.992Z,67.70
2019-02-27T06:21:40.753Z,67.60
2019-02-27T06:23:12.991Z,67.60
2019-02-27T06:24:45.540Z,67.60
2019-02-27T06:26:18.759Z,67.50
2019-02-27T06:27:50.972Z,68.20
2019-02-27T06:29:23.960Z,67.90
2019-02-27T06:30:56.509Z,68.20
2019-02-27T06:32:28.809Z,68.10
2019-02-27T06:34:01.117Z,67.80
2019-02-27T06:35:34.287Z,67.70
2019-02-27T06:37:06.709Z,67.90
2019-02-27T06:38:38.977Z,68.40
2019-02-27T06:40:12.607Z,68.20
2019-02-27T06:41:47.421Z,68.40
2019-02-27T06:43:18.805Z,68.60
2019-02-27T06:44:51.019Z,69.10
2019-02-27T06:46:23.273Z,69.10
2019-02-27T06:47:55.553Z,69.20
2019-02-27T06:49:27.656Z,69.80
2019-02-27T06:51:00.924Z,69.30
2019-02-27T06:52:33.766Z,70.20
2019-02-27T06:54:06.025Z,70.40
2019-02-27T06:55:38.273Z,70.20
2019-02-27T06:57:10.560Z,70.20
2019-02-27T06:58:42.703Z,70.40
2019-02-27T07:00:16.821Z,70.40
2019-02-27T07:01:49.088Z,70.70
2019-02-27T07:03:21.352Z,71.20
2019-02-27T07:04:53.612Z,71.30
2019-02-27T07:06:25.840Z,70.80
2019-02-27T07:07:58.116Z,71.00
2019-02-27T07:09:30.377Z,70.40
2019-02-27T07:11:10.530Z,71.10
2019-02-27T07:12:37.408Z,70.70
2019-02-27T07:14:09.709Z,71.20
2019-02-27T07:15:41.906Z,71.10
2019-02-27T07:17:14.188Z,71.50
2019-02-27T07:18:47.340Z,71.20
2019-02-27T07:20:23.958Z,71.30
2019-02-27T07:21:53.772Z,70.80
2019-02-27T07:23:26.065Z,71.10
2019-02-27T07:24:58.399Z,71.10
2019-02-27T07:26:30.668Z,71.10
2019-02-27T07:28:03.518Z,72.70
2019-02-27T07:29:35.926Z,70.80
2019-02-27T07:31:08.244Z,71.70
2019-02-27T07:32:40.444Z,71.20
2019-02-27T07:34:14.384Z,71.20
2019-02-27T07:35:46.888Z,71.40
2019-02-27T07:37:19.209Z,71.10
2019-02-27T07:38:51.340Z,71.00
2019-02-27T07:40:23.526Z,71.70
2019-02-27T07:41:55.751Z,72.10
2019-02-27T07:43:28.040Z,71.10
2019-02-27T07:45:00.319Z,72.00
2019-02-27T07:46:32.635Z,71.90
2019-02-27T07:48:04.776Z,71.70
2019-02-27T07:49:37.056Z,72.50
2019-02-27T07:51:09.203Z,71.20
2019-02-27T07:52:41.358Z,70.60
2019-02-27T07:54:13.521Z,70.50
2019-02-27T07:55:47.330Z,69.70
2019-02-27T07:57:19.775Z,68.50
2019-02-27T07:58:51.858Z,68.20
2019-02-27T08:00:26.126Z,67.80
2019-02-27T08:02:02.321Z,67.00
2019-02-27T08:03:32.263Z,65.70
2019-02-27T08:05:05.137Z,64.40
2019-02-27T08:06:37.751Z,63.90
2019-02-27T08:08:10.663Z,63.10
2019-02-27T08:09:42.941Z,62.60
2019-02-27T08:11:15.196Z,62.30
2019-02-27T08:12:47.310Z,61.50
2019-02-27T08:14:19.606Z,61.00
2019-02-27T08:15:51.890Z,60.20
2019-02-27T08:17:24.149Z,59.90
2019-02-27T08:18:56.291Z,59.70
2019-02-27T08:20:28.464Z,59.10
2019-02-27T08:22:00.676Z,58.70
2019-02-27T08:23:32.977Z,58.10
2019-02-27T08:25:05.685Z,57.60
2019-02-27T08:26:37.993Z,57.30
2019-02-27T08:28:10.236Z,56.70
2019-02-27T08:29:42.479Z,56.00
2019-02-27T08:31:14.586Z,56.50
2019-02-27T08:32:46.868Z,55.50
2019-02-27T08:34:19.122Z,55.40
2019-02-27T08:35:51.400Z,55.50
2019-02-27T08:37:23.704Z,55.20
2019-02-27T08:38:55.961Z,54.90
2019-02-27T08:40:28.090Z,55.50
2019-02-27T08:42:03.357Z,54.40
2019-02-27T08:43:34.642Z,54.00
2019-02-27T08:45:07.574Z,54.20
2019-02-27T08:46:39.665Z,53.50
2019-02-27T08:48:11.875Z,54.20
2019-02-27T08:49:44.133Z,53.20
2019-02-27T08:51:16.387Z,52.90
2019-02-27T08:52:51.498Z,52.70
2019-02-27T08:54:22.532Z,52.80
2019-02-27T08:55:54.656Z,53.20
2019-02-27T08:57:26.826Z,53.40
2019-02-27T08:58:59.074Z,53.70
2019-02-27T09:00:31.690Z,54.00
2019-02-27T09:02:04.788Z,54.30
2019-02-27T09:03:37.073Z,54.70
2019-02-27T09:05:09.545Z,55.10
2019-02-27T09:06:41.827Z,55.60
2019-02-27T09:08:14.079Z,55.90
2019-02-27T09:09:51.230Z,56.20
2019-02-27T09:11:20.532Z,56.30
2019-02-27T09:12:52.724Z,56.50
2019-02-27T09:14:24.869Z,56.70
2019-02-27T09:15:57.160Z,56.70
2019-02-27T09:17:29.488Z,56.70
2019-02-27T09:19:01.767Z,56.60
2019-02-27T09:20:33.913Z,56.40
2019-02-27T09:22:06.183Z,56.10
2019-02-27T09:23:38.566Z,56.10
2019-02-27T09:25:10.942Z,56.00
2019-02-27T09:26:43.208Z,55.30
2019-02-27T09:28:15.490Z,54.80
2019-02-27T09:29:49.326Z,54.50
2019-02-27T09:31:21.687Z,53.90
2019-02-27T09:32:53.896Z,53.60
2019-02-27T09:34:26.878Z,54.00
2019-02-27T09:35:59.815Z,53.10
2019-02-27T09:37:31.981Z,52.50
2019-02-27T09:39:05.476Z,52.40
2019-02-27T09:40:38.923Z,52.20
2019-02-27T09:42:11.647Z,51.90
2019-02-27T09:43:43.912Z,51.90
2019-02-27T09:45:22.277Z,51.30
2019-02-27T09:46:54.411Z,51.20
2019-02-27T09:48:26.681Z,50.20
2019-02-27T09:49:58.969Z,51.00
2019-02-27T09:51:31.314Z,50.10
2019-02-27T09:53:04.430Z,50.00
2019-02-27T09:54:36.973Z,49.70
2019-02-27T09:56:09.285Z,48.90
2019-02-27T09:57:41.535Z,48.30
2019-02-27T09:59:13.657Z,48.00
2019-02-27T10:00:50.873Z,47.60
2019-02-27T10:02:23.133Z,46.20
2019-02-27T10:03:55.542Z,45.10
2019-02-27T10:05:27.844Z,44.70
2019-02-27T10:07:00.115Z,44.00
2019-02-27T10:08:32.456Z,43.60
2019-02-27T10:10:04.894Z,43.30
2019-02-27T10:11:37.138Z,44.00
2019-02-27T10:13:09.447Z,43.50
2019-02-27T10:14:41.762Z,43.90
2019-02-27T10:16:14.033Z,43.40
2019-02-27T10:17:46.327Z,42.30
2019-02-27T10:19:18.586Z,41.90
2019-02-27T10:20:50.844Z,42.80
2019-02-27T10:22:24.604Z,42.60
2019-02-27T10:23:57.066Z,41.90
2019-02-27T10:25:29.319Z,40.40
2019-02-27T10:27:01.610Z,41.40
2019-02-27T10:28:38.848Z,40.10
2019-02-27T10:30:11.448Z,41.20
2019-02-27T10:31:42.157Z,40.80
2019-02-27T10:33:14.267Z,41.10
2019-02-27T10:34:46.506Z,41.50
2019-02-27T10:36:18.865Z,40.40
2019-02-27T10:37:54.237Z,40.70
2019-02-27T10:39:25.376Z,40.90
2019-02-27T10:40:57.619Z,41.50
2019-02-27T10:42:29.900Z,41.30
2019-02-27T10:44:02.194Z,40.90
2019-02-27T10:45:34.321Z,40.90
2019-02-27T10:47:06.720Z,40.30
2019-02-27T10:48:39.075Z,40.70
2019-02-27T10:50:12.598Z,41.30
2019-02-27T10:51:44.966Z,41.00
2019-02-27T10:53:17.376Z,40.60
2019-02-27T10:54:49.647Z,40.20
2019-02-27T10:56:24.268Z,39.10
2019-02-27T10:57:56.239Z,40.40
2019-02-27T10:59:28.544Z,40.00
2019-02-27T11:01:01.160Z,40.70
2019-02-27T11:02:34.210Z,40.30
2019-02-27T11:04:06.490Z,40.00
2019-02-27T11:05:38.725Z,40.00
2019-02-27T11:07:13.198Z,40.00
2019-02-27T11:08:45.271Z,39.90
2019-02-27T11:10:17.406Z,39.40
2019-02-27T11:11:53.750Z,38.70
2019-02-27T11:13:23.844Z,39.50
2019-02-27T11:14:56.145Z,40.00
2019-02-27T11:16:28.432Z,39.20
2019-02-27T11:18:04.233Z,39.40
2019-02-27T11:19:35.039Z,39.10
2019-02-27T11:21:07.616Z,37.70
2019-02-27T11:22:39.909Z,38.50
2019-02-27T11:24:16.465Z,38.20
2019-02-27T11:25:46.383Z,38.50
2019-02-27T11:27:18.523Z,38.60
2019-02-27T11:28:50.683Z,39.20
2019-02-27T11:30:25.351Z,38.80
2019-02-27T11:31:57.623Z,38.80
2019-02-27T11:33:32.706Z,38.20
2019-02-27T11:35:04.251Z,38.10
2019-02-27T11:36:39.020Z,38.10
2019-02-27T11:38:10.705Z,38.10
2019-02-27T11:39:42.997Z,37.80
2019-02-27T11:41:15.900Z,37.20
2019-02-27T11:42:48.313Z,36.50
2019-02-27T11:44:20.575Z,37.10
2019-02-27T11:45:57.503Z,36.60
2019-02-27T11:47:28.852Z,37.60
2019-02-27T11:49:03.058Z,38.10
2019-02-27T11:50:35.370Z,37.10
2019-02-27T11:52:07.601Z,37.20
2019-02-27T11:53:39.886Z,38.00
2019-02-27T11:55:14.821Z,38.10
2019-02-27T11:56:47.459Z,37.80
2019-02-27T11:58:19.742Z,37.80
2019-02-27T11:59:51.983Z,37.40
2019-02-27T12:01:24.259Z,37.90
2019-02-27T12:02:56.816Z,37.30
2019-02-27T12:04:29.130Z,37.20
2019-02-27T12:06:01.250Z,37.10
2019-02-27T12:07:33.447Z,37.70
2019-02-27T12:09:06.349Z,38.10
2019-02-27T12:10:38.672Z,38.00
2019-02-27T12:12:11.069Z,37.70
2019-02-27T12:13:43.378Z,38.10
2019-02-27T12:15:16.741Z,38.10
2019-02-27T12:16:51.791Z,37.80
2019-02-27T12:18:23.688Z,37.40
2019-02-27T12:19:56.088Z,38.00
2019-02-27T12:21:28.398Z,37.70
2019-02-27T12:23:00.527Z,37.60
2019-02-27T12:24:32.754Z,37.20
2019-02-27T12:26:05.062Z,37.90
2019-02-27T12:27:48.284Z,37.40
2019-02-27T12:29:11.544Z,37.00
2019-02-27T12:30:43.848Z,36.90
2019-02-27T12:32:21.939Z,36.90
2019-02-27T12:33:54.388Z,37.40
2019-02-27T12:35:27.996Z,37.90
2019-02-27T12:37:00.356Z,37.60
2019-02-27T12:38:32.661Z,37.60
2019-02-27T12:40:05.954Z,37.00
2019-02-27T12:41:40.386Z,37.20
2019-02-27T12:43:18.361Z,37.60
2019-02-27T12:44:53.852Z,37.60
2019-02-27T12:46:24.801Z,36.80
2019-02-27T12:47:57.220Z,37.00
2019-02-27T12:49:30.287Z,37.40
2019-02-27T12:51:03.654Z,37.00
2019-02-27T12:52:36.828Z,37.00
2019-02-27T12:54:09.175Z,37.70
2019-02-27T12:55:41.497Z,36.40
2019-02-27T12:57:17.441Z,36.00
2019-02-27T12:58:48.211Z,36.70
2019-02-27T13:00:22.911Z,37.10
2019-02-27T13:01:55.272Z,36.90
2019-02-27T13:03:28.669Z,37.00
2019-02-27T13:05:01.285Z,36.50
2019-02-27T13:06:36.612Z,36.50
2019-02-27T13:08:09.144Z,35.70
2019-02-27T13:09:43.126Z,36.10
2019-02-27T13:11:15.587Z,36.90
2019-02-27T13:12:49.221Z,37.10
2019-02-27T13:14:22.354Z,36.90
2019-02-27T13:15:54.720Z,37.10
2019-02-27T13:17:26.961Z,37.50
2019-02-27T13:18:59.286Z,37.70
2019-02-27T13:20:31.619Z,37.30
2019-02-27T13:22:03.855Z,37.10
2019-02-27T13:23:38.970Z,36.90
2019-02-27T13:25:10.649Z,36.80
2019-02-27T13:26:43.066Z,37.20
2019-02-27T13:28:15.702Z,37.70
2019-02-27T13:29:48.047Z,37.50
2019-02-27T13:31:20.323Z,37.70
2019-02-27T13:32:52.883Z,37.50
2019-02-27T13:34:25.584Z,37.70
2019-02-27T13:35:59.778Z,38.10
2019-02-27T13:37:32.238Z,38.20
2019-02-27T13:39:06.846Z,38.20
2019-02-27T13:40:39.141Z,38.40
2019-02-27T13:42:11.410Z,38.90
2019-02-27T13:43:43.668Z,38.20
2019-02-27T13:45:18.016Z,38.90
2019-02-27T13:46:50.375Z,38.30
2019-02-27T13:48:22.728Z,36.90
2019-02-27T13:49:55.085Z,37.70
2019-02-27T13:51:27.359Z,35.70
2019-02-27T13:52:59.621Z,35.10
2019-02-27T13:54:34.653Z,35.70
2019-02-27T13:56:06.107Z,34.70
2019-02-27T13:57:38.473Z,35.50
2019-02-27T13:59:11.641Z,35.00
2019-02-27T14:00:44.054Z,35.20
2019-02-27T14:02:16.228Z,34.40
2019-02-27T14:03:48.974Z,35.20
2019-02-27T14:05:21.515Z,36.00
2019-02-27T14:06:53.709Z,36.00
2019-02-27T14:08:25.854Z,35.40
2019-02-27T14:09:58.144Z,35.50
2019-02-27T14:11:30.407Z,36.20
2019-02-27T14:13:02.808Z,36.40
2019-02-27T14:14:35.180Z,36.40
2019-02-27T14:16:07.604Z,36.80
2019-02-27T14:17:42.086Z,36.50
2019-02-27T14:19:14.121Z,36.10
2019-02-27T14:20:46.233Z,35.90
2019-02-27T14:22:18.388Z,36.50
2019-02-27T14:23:50.682Z,35.70
2019-02-27T14:25:28.553Z,35.90
2019-02-27T14:26:58.145Z,36.00
2019-02-27T14:28:30.425Z,36.30
2019-02-27T14:30:03.822Z,36.20
2019-02-27T14:31:36.865Z,35.00
2019-02-27T14:33:11.022Z,36.30
2019-02-27T14:34:43.461Z,35.80
2019-02-27T14:36:15.750Z,35.80
2019-02-27T14:37:50.131Z,36.70
2019-02-27T14:39:22.301Z,35.70
2019-02-27T14:40:54.607Z,36.40
2019-02-27T14:42:26.905Z,35.70
2019-02-27T14:43:59.161Z,36.10
2019-02-27T14:45:31.452Z,36.70
2019-02-27T14:47:03.703Z,37.00
2019-02-27T14:48:35.893Z,37.50
2019-02-27T14:50:09.769Z,35.80
2019-02-27T14:51:42.062Z,36.60
2019-02-27T14:53:16.542Z,37.00
2019-02-27T14:54:48.460Z,36.60
2019-02-27T14:56:20.746Z,36.40
2019-02-27T14:57:53.080Z,35.50
2019-02-27T14:59:30.495Z,35.60
2019-02-27T15:00:59.501Z,35.60
2019-02-27T15:02:31.886Z,35.60
2019-02-27T15:04:04.235Z,36.00
2019-02-27T15:05:36.905Z,36.70
2019-02-27T15:07:10.680Z,36.80
2019-02-27T15:08:42.985Z,36.10
2019-02-27T15:10:15.541Z,35.90
2019-02-27T15:11:48.242Z,36.10
2019-02-27T15:13:21.237Z,35.80
2019-02-27T15:14:53.506Z,35.40
2019-02-27T15:16:25.823Z,35.60
2019-02-27T15:17:58.218Z,36.50
2019-02-27T15:19:30.734Z,37.00
2019-02-27T15:21:03.126Z,37.60
2019-02-27T15:22:35.464Z,37.40
2019-02-27T15:24:07.764Z,37.60
2019-02-27T15:25:43.051Z,36.70
2019-02-27T15:27:14.302Z,37.60
2019-02-27T15:28:46.600Z,37.40
2019-02-27T15:30:24.183Z,37.00
2019-02-27T15:31:56.492Z,36.80
2019-02-27T15:33:28.787Z,37.00
2019-02-27T15:35:01.037Z,37.20
2019-02-27T15:36:33.287Z,37.20
2019-02-27T15:38:05.564Z,37.80
2019-02-27T15:39:37.720Z,38.00
2019-02-27T15:41:10.055Z,37.30
2019-02-27T15:42:42.732Z,37.90
2019-02-27T15:44:15.763Z,38.10
2019-02-27T15:45:49.107Z,37.00
2019-02-27T15:47:21.535Z,37.00
2019-02-27T15:48:53.806Z,37.30
2019-02-27T15:50:26.073Z,37.20
2019-02-27T15:51:58.322Z,37.80
2019-02-27T15:53:30.686Z,37.10
2019-02-27T15:55:03.530Z,37.20
2019-02-27T15:56:35.871Z,37.20
2019-02-27T15:58:08.666Z,37.00
2019-02-27T15:59:41.872Z,37.60
2019-02-27T16:01:14.303Z,37.60
2019-02-27T16:02:47.499Z,37.30
2019-02-27T16:04:21.226Z,37.50
2019-02-27T16:05:54.013Z,37.50
2019-02-27T16:07:26.381Z,37.50
2019-02-27T16:08:58.765Z,37.00
2019-02-27T16:10:31.023Z,37.50
2019-02-27T16:12:03.306Z,37.40
2019-02-27T16:13:35.560Z,38.00
2019-02-27T16:15:08.389Z,37.80
2019-02-27T16:16:40.501Z,37.40
2019-02-27T16:18:13.801Z,37.40
2019-02-27T16:19:49.358Z,37.40
2019-02-27T16:21:23.710Z,37.30
2019-02-27T16:22:55.886Z,37.50
2019-02-27T16:24:28.218Z,37.30
2019-02-27T16:26:00.469Z,37.50
2019-02-27T16:27:35.387Z,37.70
2019-02-27T16:29:07.001Z,37.90
2019-02-27T16:30:39.199Z,37.20
2019-02-27T16:32:13.456Z,37.80
2019-02-27T16:33:45.543Z,37.50
2019-02-27T16:35:17.804Z,38.10
2019-02-27T16:36:50.071Z,38.00
2019-02-27T16:38:22.304Z,37.60
2019-02-27T16:39:55.355Z,37.00
2019-02-27T16:41:28.993Z,37.50
2019-02-27T16:43:01.730Z,37.80
2019-02-27T16:44:33.957Z,38.20
2019-02-27T16:46:08.623Z,38.20
2019-02-27T16:47:41.381Z,38.50
2019-02-27T16:49:13.801Z,37.70
2019-02-27T16:50:46.138Z,37.80
2019-02-27T16:52:18.387Z,38.20
2019-02-27T16:53:52.654Z,38.00
2019-02-27T16:55:24.892Z,37.90
2019-02-27T16:56:58.161Z,37.70
2019-02-27T16:58:32.995Z,37.70
2019-02-27T17:00:05.277Z,37.60
2019-02-27T17:01:37.444Z,37.50
2019-02-27T17:03:12.797Z,37.60
2019-02-27T17:04:43.912Z,37.50
2019-02-27T17:06:18.275Z,37.70
2019-02-27T17:07:50.910Z,38.00
2019-02-27T17:09:23.121Z,38.30
2019-02-27T17:10:55.543Z,38.40
2019-02-27T17:12:27.845Z,38.30
2019-02-27T17:14:00.132Z,38.20
2019-02-27T17:15:35.829Z,38.30
2019-02-27T17:17:06.730Z,38.40
2019-02-27T17:18:39.119Z,38.80
2019-02-27T17:20:13.342Z,38.50
2019-02-27T17:21:45.475Z,39.30
2019-02-27T17:23:17.901Z,40.00
2019-02-27T17:24:52.182Z,41.10
2019-02-27T17:26:24.392Z,40.70
2019-02-27T17:27:58.618Z,40.80
2019-02-27T17:29:31.154Z,40.00
2019-02-27T17:31:03.591Z,39.70
2019-02-27T17:32:35.724Z,39.60
2019-02-27T17:34:10.886Z,39.30
2019-02-27T17:35:42.181Z,39.00
2019-02-27T17:37:14.466Z,39.20
2019-02-27T17:38:49.801Z,39.10
2019-02-27T17:40:21.031Z,39.20
2019-02-27T17:41:53.387Z,39.40
2019-02-27T17:43:29.480Z,39.40
2019-02-27T17:44:59.805Z,39.20
2019-02-27T17:46:32.068Z,39.30
2019-02-27T17:48:04.340Z,40.00
2019-02-27T17:49:36.488Z,40.30
2019-02-27T17:51:08.816Z,40.60
2019-02-27T17:52:41.069Z,40.40
2019-02-27T17:54:13.433Z,41.20
2019-02-27T17:55:45.668Z,41.10
2019-02-27T17:57:17.935Z,40.90
2019-02-27T17:58:50.214Z,40.80
2019-02-27T18:00:36.164Z,41.10
2019-02-27T18:02:08.561Z,41.70
2019-02-27T18:03:41.779Z,41.90
2019-02-27T18:05:14.247Z,42.10
2019-02-27T18:06:46.515Z,41.80
2019-02-27T18:08:18.812Z,41.70
2019-02-27T18:09:51.082Z,41.60
2019-02-27T18:11:23.324Z,42.30
2019-02-27T18:12:55.606Z,41.60
2019-02-27T18:14:27.825Z,41.70
2019-02-27T18:16:00.000Z,41.70
2019-02-27T18:17:34.859Z,41.60
2019-02-27T18:19:06.344Z,41.80
2019-02-27T18:20:38.661Z,41.80
2019-02-27T18:22:14.000Z,41.80
2019-02-27T18:23:45.169Z,41.80
2019-02-27T18:25:18.200Z,41.90
2019-02-27T18:26:51.303Z,42.40
2019-02-27T18:28:23.788Z,42.90
2019-02-27T18:29:56.135Z,42.80
2019-02-27T18:31:29.519Z,42.80
2019-02-27T18:33:01.847Z,42.80
2019-02-27T18:34:34.011Z,43.50
2019-02-27T18:36:06.335Z,43.00
2019-02-27T18:37:38.587Z,43.00
2019-02-27T18:39:10.872Z,43.10
2019-02-27T18:40:43.674Z,43.20
2019-02-27T18:42:17.215Z,43.20
2019-02-27T18:43:50.273Z,43.20
2019-02-27T18:45:22.533Z,43.20
2019-02-27T18:46:56.267Z,43.20
2019-02-27T18:48:28.920Z,43.20
2019-02-27T18:50:01.087Z,43.20
2019-02-27T18:51:33.938Z,43.30
2019-02-27T18:53:07.545Z,43.20
2019-02-27T18:54:39.786Z,43.30
2019-02-27T18:56:12.041Z,43.40
2019-02-27T18:57:47.151Z,43.60
2019-02-27T18:59:18.568Z,43.50
2019-02-27T19:00:50.707Z,43.90
2019-02-27T19:02:22.983Z,43.80
2019-02-27T19:04:00.330Z,43.80
2019-02-27T19:05:29.367Z,43.70
2019-02-27T19:07:01.742Z,43.50
2019-02-27T19:08:33.924Z,43.60
2019-02-27T19:10:07.559Z,43.60
2019-02-27T19:11:39.975Z,43.60
2019-02-27T19:13:12.265Z,44.10
2019-02-27T19:14:44.572Z,44.00
2019-02-27T19:16:17.481Z,43.80
2019-02-27T19:17:51.123Z,44.70
2019-02-27T19:19:23.361Z,44.50
2019-02-27T19:20:56.257Z,44.70
2019-02-27T19:22:29.790Z,44.70
2019-02-27T19:24:02.069Z,44.90
2019-02-27T19:25:35.349Z,45.30
2019-02-27T19:27:08.000Z,45.50
2019-02-27T19:28:40.357Z,45.70
2019-02-27T19:30:14.421Z,45.50
2019-02-27T19:31:48.402Z,45.90
2019-02-27T19:33:20.911Z,46.30
2019-02-27T19:34:53.150Z,45.90
2019-02-27T19:36:30.431Z,45.40
2019-02-27T19:37:59.458Z,45.30
2019-02-27T19:39:31.628Z,45.10
2019-02-27T19:41:04.195Z,45.20
2019-02-27T19:42:46.833Z,45.10
2019-02-27T19:44:20.089Z,45.10
2019-02-27T19:45:52.256Z,44.90
2019-02-27T19:47:24.567Z,44.90
2019-02-27T19:48:56.807Z,44.70
2019-02-27T19:50:29.119Z,44.80
2019-02-27T19:52:01.487Z,44.70
2019-02-27T19:53:33.575Z,44.70
2019-02-27T19:55:06.047Z,44.50
2019-02-27T19:56:38.415Z,44.40
2019-02-27T19:58:10.525Z,44.40
2019-02-27T19:59:42.766Z,44.40
2019-02-27T20:01:15.029Z,44.70
2019-02-27T20:02:47.350Z,44.60
2019-02-27T20:04:19.664Z,44.50
2019-02-27T20:05:53.228Z,45.10
2019-02-27T20:07:26.083Z,45.20
2019-02-27T20:08:58.456Z,45.00
2019-02-27T20:10:33.121Z,45.20
2019-02-27T20:12:04.918Z,45.00
2019-02-27T20:13:37.253Z,44.80
2019-02-27T20:15:11.059Z,44.80
2019-02-27T20:16:44.223Z,45.20
2019-02-27T20:18:16.522Z,45.60
2019-02-27T20:19:48.632Z,45.30
2019-02-27T20:21:20.903Z,45.20
2019-02-27T20:22:54.735Z,45.10
2019-02-27T20:24:27.215Z,45.10